Time;durP1;ratioP1;P1;durP2;ratioP2;P2;SDS_P1;SDS_P2;PMS_P1;PMS_P2;Temp;Humidity;BMP_temperature;BMP_pressure;BME280_temperature;BME280_humidity;BME280_pressure;Samples;Min_cycle;Max_cycle;Signal;HPM_P1;HPM_P2
2022/02/24 00:00:56;;;;;;;0.82;0.70;;;18.80;59.20;;;;;;5074663;28;20027;-71
2022/02/24 00:03:23;;;;;;;1.85;0.70;;;18.80;59.20;;;;;;5056686;28;20021;-71
2022/02/24 00:05:48;;;;;;;2.40;0.80;;;18.80;59.30;;;;;;5074538;28;20093;-71
2022/02/24 00:08:14;;;;;;;1.20;0.68;;;18.80;59.30;;;;;;5074591;28;20479;-71
2022/02/24 00:10:40;;;;;;;0.55;0.43;;;18.80;59.30;;;;;;5074469;28;20036;-71
2022/02/24 00:13:05;;;;;;;1.38;0.63;;;18.80;59.30;;;;;;5074580;28;20564;-71
2022/02/24 00:15:31;;;;;;;1.23;0.63;;;18.70;59.30;;;;;;5056450;28;20032;-71
2022/02/24 00:17:57;;;;;;;0.60;0.60;;;18.70;59.40;;;;;;5074105;28;20052;-71
2022/02/24 00:20:22;;;;;;;2.38;0.70;;;18.70;59.40;;;;;;5056486;28;20020;-71
2022/02/24 00:22:48;;;;;;;0.88;0.70;;;18.70;59.40;;;;;;5074005;28;20020;-71
2022/02/24 00:25:14;;;;;;;0.55;0.50;;;18.70;59.40;;;;;;5055249;28;20020;-71
2022/02/24 00:27:39;;;;;;;1.20;0.50;;;18.70;59.50;;;;;;5074129;28;20032;-71
2022/02/24 00:30:05;;;;;;;3.20;1.30;;;18.70;59.50;;;;;;5074298;28;20024;-71
2022/02/24 00:32:31;;;;;;;1.05;0.75;;;18.70;59.50;;;;;;5056005;28;20048;-71
2022/02/24 00:34:57;;;;;;;0.55;0.47;;;18.70;59.60;;;;;;5073956;28;20051;-71
2022/02/24 00:37:23;;;;;;;2.47;1.35;;;18.60;59.50;;;;;;5056128;28;20056;-71
2022/02/24 00:39:48;;;;;;;1.48;0.63;;;18.70;59.60;;;;;;5039396;28;20020;-71
2022/02/24 00:42:14;;;;;;;0.85;0.60;;;18.70;59.70;;;;;;5073935;28;20447;-71
2022/02/24 00:44:39;;;;;;;1.10;0.50;;;18.70;59.60;;;;;;5056086;28;20028;-71
2022/02/24 00:47:05;;;;;;;1.45;0.60;;;18.60;59.60;;;;;;5073718;28;20378;-71
2022/02/24 00:49:31;;;;;;;2.63;0.60;;;18.60;59.60;;;;;;5078195;28;20028;-71
2022/02/24 00:51:57;;;;;;;0.90;0.70;;;18.60;59.60;;;;;;5093947;28;20031;-71
2022/02/24 00:54:22;;;;;;;1.15;0.70;;;18.60;59.70;;;;;;5093964;28;20036;-71
2022/02/24 00:56:48;;;;;;;0.82;0.63;;;18.60;59.70;;;;;;5092325;28;20039;-71
2022/02/24 00:59:14;;;;;;;1.67;0.40;;;18.60;59.80;;;;;;5073589;28;20025;-71
2022/02/24 01:01:40;;;;;;;1.95;0.75;;;18.60;59.70;;;;;;5055419;28;20036;-71
2022/02/24 01:04:06;;;;;;;1.67;0.70;;;18.60;60.70;;;;;;5073350;28;20094;-71
2022/02/24 01:06:31;;;;;;;1.80;0.60;;;18.60;59.80;;;;;;5073504;28;20060;-71
2022/02/24 01:08:57;;;;;;;0.57;0.57;;;18.60;59.80;;;;;;5055578;28;20032;-71
2022/02/24 01:11:23;;;;;;;1.08;0.60;;;18.60;59.80;;;;;;5073258;28;20035;-71
2022/02/24 01:13:48;;;;;;;1.15;0.50;;;18.60;59.90;;;;;;5055476;28;20036;-71
2022/02/24 01:16:14;;;;;;;1.27;0.63;;;18.60;59.90;;;;;;5054931;28;20031;-71
2022/02/24 01:18:39;;;;;;;1.27;0.70;;;18.50;59.90;;;;;;5073135;28;20024;-71
2022/02/24 01:21:05;;;;;;;0.57;0.40;;;18.50;59.90;;;;;;5073212;28;20371;-71
2022/02/24 01:23:31;;;;;;;1.02;0.70;;;18.50;59.90;;;;;;5073192;28;20024;-71
2022/02/24 01:25:56;;;;;;;0.43;0.43;;;18.50;60.00;;;;;;5073071;28;20370;-71
2022/02/24 01:28:22;;;;;;;2.08;0.60;;;18.50;59.90;;;;;;5055290;28;20024;-71
2022/02/24 01:30:47;;;;;;;1.25;0.68;;;18.50;60.00;;;;;;5072605;28;20032;-71
2022/02/24 01:33:13;;;;;;;0.85;0.50;;;18.50;60.00;;;;;;5035335;28;20053;-71
2022/02/24 01:35:39;;;;;;;0.60;0.50;;;18.50;60.00;;;;;;5032628;28;20369;-71
2022/02/24 01:38:04;;;;;;;0.88;0.55;;;18.50;60.00;;;;;;5031783;28;20022;-71
2022/02/24 01:40:30;;;;;;;0.65;0.50;;;18.50;60.10;;;;;;5032740;28;20029;-71
2022/02/24 01:42:55;;;;;;;1.52;0.68;;;18.50;60.10;;;;;;5031660;28;20028;-71
2022/02/24 01:45:21;;;;;;;0.75;0.57;;;18.50;60.10;;;;;;5032552;28;20071;-71
2022/02/24 01:47:47;;;;;;;0.40;0.40;;;18.40;60.10;;;;;;5032639;28;20557;-71
2022/02/24 01:50:12;;;;;;;3.08;0.70;;;18.40;60.10;;;;;;5041564;28;20107;-71
2022/02/24 01:52:39;;;;;;;0.85;0.65;;;18.40;60.10;;;;;;5051476;28;20029;-71
2022/02/24 01:55:05;;;;;;;1.83;0.80;;;18.40;60.20;;;;;;5034963;28;20021;-71
2022/02/24 01:57:31;;;;;;;2.20;0.60;;;18.40;60.20;;;;;;5045410;28;20021;-71
2022/02/24 01:59:56;;;;;;;1.23;0.50;;;18.40;60.20;;;;;;5031041;28;20022;-71
2022/02/24 02:02:23;;;;;;;1.25;0.70;;;18.40;60.20;;;;;;5031501;28;20017;-71
2022/02/24 02:04:48;;;;;;;2.20;0.50;;;18.40;60.20;;;;;;5032270;28;20033;-71
2022/02/24 02:07:14;;;;;;;0.77;0.50;;;18.40;60.30;;;;;;5032609;28;20033;-71
2022/02/24 02:09:39;;;;;;;1.40;0.52;;;18.40;60.30;;;;;;5031188;28;20076;-71
2022/02/24 02:12:05;;;;;;;1.88;0.60;;;18.40;60.30;;;;;;5031409;28;20543;-71
2022/02/24 02:14:31;;;;;;;2.13;0.70;;;18.40;60.30;;;;;;5030639;28;20026;-71
2022/02/24 02:16:58;;;;;;;1.13;0.60;;;18.40;60.40;;;;;;5031187;28;20487;-71
2022/02/24 02:19:24;;;;;;;1.52;0.70;;;18.40;60.40;;;;;;5031346;28;20021;-71
2022/02/24 02:21:50;;;;;;;2.08;0.88;;;18.40;60.40;;;;;;5032214;28;20383;-71
2022/02/24 02:24:15;;;;;;;1.13;0.60;;;18.30;60.40;;;;;;5031121;28;20048;-71
2022/02/24 02:26:41;;;;;;;1.33;0.50;;;18.30;60.40;;;;;;5031063;28;20100;-72
2022/02/24 02:29:09;;;;;;;0.88;0.50;;;18.30;60.40;;;;;;5030816;28;20083;-71
2022/02/24 02:31:35;;;;;;;0.60;0.50;;;18.30;60.40;;;;;;5036188;28;20033;-71
2022/02/24 02:34:14;;;;;;;0.93;0.50;;;18.40;60.50;;;;;;5054234;28;20024;-71
2022/02/24 02:36:40;;;;;;;0.73;0.50;;;18.30;60.50;;;;;;5072080;28;20090;-71
2022/02/24 02:39:10;;;;;;;1.65;0.85;;;18.30;60.50;;;;;;5054094;28;20482;-71
2022/02/24 02:41:36;;;;;;;0.80;0.57;;;18.30;60.60;;;;;;5054639;28;20087;-71
2022/02/24 02:44:02;;;;;;;1.25;0.75;;;18.30;60.60;;;;;;5071902;28;20020;-71
2022/02/24 02:46:28;;;;;;;1.80;0.60;;;18.30;60.60;;;;;;5072010;28;20028;-71
2022/02/24 02:48:53;;;;;;;0.93;0.38;;;18.30;60.60;;;;;;5074248;28;20130;-71
2022/02/24 02:51:19;;;;;;;1.20;0.77;;;18.30;60.60;;;;;;5095671;28;20040;-71
2022/02/24 02:53:45;;;;;;;1.13;0.50;;;18.30;60.60;;;;;;5078106;28;20400;-71
2022/02/24 02:56:11;;;;;;;1.67;0.70;;;18.30;60.70;;;;;;5096158;28;20028;-71
2022/02/24 02:58:36;;;;;;;0.90;0.63;;;18.30;60.70;;;;;;5079393;28;20394;-71
2022/02/24 03:01:02;;;;;;;0.90;0.57;;;18.30;60.70;;;;;;5058020;28;20471;-71
2022/02/24 03:03:28;;;;;;;0.98;0.45;;;18.30;60.70;;;;;;5075804;28;20017;-71
2022/02/24 03:05:54;;;;;;;1.63;0.45;;;18.30;60.70;;;;;;5057869;28;20033;-71
2022/02/24 03:08:19;;;;;;;0.82;0.40;;;18.30;60.70;;;;;;5075921;28;20020;-71
2022/02/24 03:10:46;;;;;;;0.73;0.45;;;18.30;60.70;;;;;;5075580;28;20032;-71
2022/02/24 03:13:12;;;;;;;2.25;0.77;;;18.30;60.70;;;;;;5041310;28;20063;-71
2022/02/24 03:15:38;;;;;;;1.58;0.55;;;18.30;60.80;;;;;;5083941;28;20020;-71
2022/02/24 03:18:03;;;;;;;0.88;0.70;;;18.30;60.80;;;;;;5074389;28;20020;-71
2022/02/24 03:20:31;;;;;;;1.42;0.70;;;18.30;60.80;;;;;;5094174;28;20020;-71
2022/02/24 03:22:57;;;;;;;1.83;0.55;;;18.30;60.80;;;;;;5076559;28;20389;-71
2022/02/24 03:25:23;;;;;;;1.67;0.60;;;18.30;60.80;;;;;;5077828;28;20027;-71
2022/02/24 03:27:48;;;;;;;1.10;0.60;;;18.30;60.90;;;;;;5077057;28;20028;-71
2022/02/24 03:30:14;;;;;;;1.42;0.60;;;18.30;60.90;;;;;;5077398;28;20034;-71
2022/02/24 03:32:43;;;;;;;0.63;0.50;;;18.30;60.90;;;;;;5077332;28;20048;-71
2022/02/24 03:35:09;;;;;;;0.60;0.55;;;18.30;60.90;;;;;;5077939;28;20040;-71
2022/02/24 03:37:35;;;;;;;2.20;0.60;;;18.30;62.00;;;;;;5077365;28;20031;-71
2022/02/24 03:40:02;;;;;;;1.60;0.50;;;18.20;60.90;;;;;;5077403;28;20020;-71
2022/02/24 03:42:28;;;;;;;0.65;0.40;;;18.30;61.00;;;;;;5094859;28;20020;-71
2022/02/24 03:44:55;;;;;;;0.90;0.63;;;18.20;60.90;;;;;;5077200;28;20107;-71
2022/02/24 03:47:22;;;;;;;0.80;0.55;;;18.20;61.00;;;;;;5095100;28;20052;-71
2022/02/24 03:49:48;;;;;;;0.60;0.60;;;18.20;61.00;;;;;;5077202;28;20501;-70
2022/02/24 03:52:14;;;;;;;2.85;0.68;;;18.20;61.00;;;;;;5094912;28;20103;-70
2022/02/24 03:54:40;;;;;;;0.95;0.50;;;18.20;61.00;;;;;;5095119;28;20036;-70
2022/02/24 03:57:05;;;;;;;1.00;0.70;;;18.20;61.00;;;;;;5076521;28;20024;-70
2022/02/24 03:59:31;;;;;;;0.88;0.47;;;18.20;61.00;;;;;;5094747;28;20024;-70
2022/02/24 04:01:57;;;;;;;1.33;0.57;;;18.20;61.10;;;;;;5094892;28;20016;-70
2022/02/24 04:04:23;;;;;;;0.93;0.47;;;18.20;61.10;;;;;;5094759;28;20021;-70
2022/02/24 04:06:49;;;;;;;1.85;0.60;;;18.20;61.10;;;;;;5076915;28;20047;-70
2022/02/24 04:09:14;;;;;;;0.88;0.55;;;18.20;61.10;;;;;;5094742;28;20035;-71
2022/02/24 04:11:40;;;;;;;1.67;0.68;;;18.20;61.10;;;;;;5094372;28;20031;-71
2022/02/24 04:14:06;;;;;;;0.90;0.70;;;18.20;61.10;;;;;;5094498;28;20039;-71
2022/02/24 04:16:32;;;;;;;2.38;0.60;;;18.20;61.10;;;;;;5094565;28;20035;-71
2022/02/24 04:18:57;;;;;;;0.45;0.43;;;18.20;61.10;;;;;;5094701;28;20051;-70
2022/02/24 04:21:23;;;;;;;1.52;0.60;;;18.10;61.10;;;;;;5076601;28;20067;-70
2022/02/24 04:23:49;;;;;;;0.70;0.50;;;18.10;61.10;;;;;;5094489;28;20078;-70
2022/02/24 04:26:14;;;;;;;0.93;0.60;;;18.10;61.10;;;;;;5093906;28;20055;-70
2022/02/24 04:28:40;;;;;;;0.90;0.50;;;18.10;61.20;;;;;;5094454;28;20107;-70
2022/02/24 04:31:05;;;;;;;1.13;0.40;;;18.10;61.20;;;;;;5094268;28;20056;-70
2022/02/24 04:33:31;;;;;;;1.27;0.60;;;18.20;61.30;;;;;;5094172;28;20054;-70
2022/02/24 04:35:57;;;;;;;1.38;0.50;;;18.10;61.20;;;;;;5094232;28;20064;-70
2022/02/24 04:38:22;;;;;;;1.10;0.40;;;18.10;61.20;;;;;;5094283;28;20024;-70
2022/02/24 04:40:48;;;;;;;0.57;0.40;;;18.10;61.20;;;;;;5093875;28;20024;-70
2022/02/24 04:43:13;;;;;;;0.75;0.57;;;18.10;61.30;;;;;;5076101;28;20032;-71
2022/02/24 04:45:39;;;;;;;0.80;0.55;;;18.10;61.40;;;;;;5094193;28;20095;-71
2022/02/24 04:48:06;;;;;;;0.30;0.30;;;18.10;61.30;;;;;;5093984;28;20491;-71
2022/02/24 04:50:32;;;;;;;0.95;0.40;;;18.10;61.40;;;;;;5080789;28;20382;-71
2022/02/24 04:52:58;;;;;;;1.65;0.30;;;18.00;61.30;;;;;;5055775;28;20027;-71
2022/02/24 04:55:23;;;;;;;0.68;0.60;;;18.10;61.40;;;;;;5073371;28;20383;-71
2022/02/24 04:57:49;;;;;;;0.98;0.38;;;18.10;61.40;;;;;;5083298;28;20031;-71
2022/02/24 05:00:15;;;;;;;1.73;0.40;;;18.10;61.40;;;;;;5093762;28;20020;-71
2022/02/24 05:02:40;;;;;;;0.73;0.63;;;18.10;61.40;;;;;;5093815;28;20024;-71
2022/02/24 05:05:06;;;;;;;0.50;0.50;;;18.10;61.40;;;;;;5075706;28;20028;-71
2022/02/24 05:07:32;;;;;;;0.60;0.38;;;18.00;61.40;;;;;;5093555;28;20038;-71
2022/02/24 05:10:01;;;;;;;1.15;0.63;;;18.10;61.50;;;;;;5075154;28;20031;-71
2022/02/24 05:12:27;;;;;;;0.50;0.40;;;18.10;61.50;;;;;;5092877;28;20059;-71
2022/02/24 05:14:53;;;;;;;1.45;0.60;;;18.00;61.50;;;;;;5058947;28;20023;-71
2022/02/24 05:17:18;;;;;;;2.40;0.60;;;18.00;61.50;;;;;;5093249;28;20028;-71
2022/02/24 05:19:44;;;;;;;0.57;0.40;;;18.00;61.50;;;;;;5093472;28;20470;-71
2022/02/24 05:22:09;;;;;;;1.13;0.52;;;18.00;61.50;;;;;;5092969;28;20513;-71
2022/02/24 05:24:35;;;;;;;0.82;0.57;;;18.00;61.60;;;;;;5093315;28;20050;-71
2022/02/24 05:27:01;;;;;;;0.68;0.40;;;18.00;61.60;;;;;;5093254;28;20059;-71
2022/02/24 05:29:26;;;;;;;0.82;0.40;;;18.00;61.60;;;;;;5093242;28;20439;-71
2022/02/24 05:31:52;;;;;;;0.68;0.50;;;18.00;61.60;;;;;;5093013;28;20559;-71
2022/02/24 05:34:17;;;;;;;1.50;0.40;;;18.00;61.60;;;;;;5093067;28;20049;-71
2022/02/24 05:36:43;;;;;;;0.82;0.60;;;18.00;62.70;;;;;;5074849;28;20024;-71
2022/02/24 05:39:10;;;;;;;0.98;0.55;;;18.00;61.70;;;;;;5074924;28;20017;-71
2022/02/24 05:41:36;;;;;;;1.10;0.40;;;18.00;61.60;;;;;;5093139;28;20478;-71
2022/02/24 05:44:02;;;;;;;0.43;0.30;;;18.00;61.60;;;;;;5075055;28;20028;-71
2022/02/24 05:46:27;;;;;;;0.82;0.40;;;18.00;61.60;;;;;;5058210;28;20032;-71
2022/02/24 05:48:53;;;;;;;1.20;0.50;;;18.00;61.70;;;;;;5092882;28;20060;-70
2022/02/24 05:51:18;;;;;;;0.80;0.30;;;17.90;61.60;;;;;;5092179;28;20038;-71
2022/02/24 05:53:44;;;;;;;0.57;0.30;;;18.00;61.70;;;;;;5092766;28;20024;-70
2022/02/24 05:56:10;;;;;;;2.03;0.47;;;18.00;61.70;;;;;;5092874;28;20032;-71
2022/02/24 05:58:35;;;;;;;0.75;0.45;;;18.00;61.70;;;;;;5092514;28;20020;-71
2022/02/24 06:01:01;;;;;;;1.27;0.55;;;17.90;62.70;;;;;;5092630;28;20024;-71
2022/02/24 06:03:27;;;;;;;0.68;0.40;;;18.00;61.80;;;;;;5092606;28;20016;-71
2022/02/24 06:05:53;;;;;;;0.40;0.40;;;17.90;61.80;;;;;;5092477;28;20059;-70
2022/02/24 06:08:19;;;;;;;1.02;0.40;;;17.90;61.80;;;;;;5074550;28;20443;-70
2022/02/24 06:10:45;;;;;;;1.30;0.32;;;17.90;61.80;;;;;;5058083;28;20028;-70
2022/02/24 06:13:10;;;;;;;1.67;0.38;;;17.90;61.80;;;;;;5092493;28;20506;-70
2022/02/24 06:15:36;;;;;;;0.85;0.50;;;17.90;61.80;;;;;;5092614;28;20031;-70
2022/02/24 06:18:07;;;;;;;0.55;0.30;;;17.90;61.80;;;;;;5074595;28;20073;-70
2022/02/24 06:20:32;;;;;;;0.88;0.45;;;17.90;61.80;;;;;;5092097;28;20497;-71
2022/02/24 06:22:58;;;;;;;0.60;0.50;;;17.90;61.90;;;;;;5092341;28;20020;-71
2022/02/24 06:25:23;;;;;;;0.98;0.38;;;17.90;61.90;;;;;;5092441;28;20025;-70
2022/02/24 06:27:49;;;;;;;0.80;0.50;;;17.90;62.00;;;;;;5074525;28;20032;-71
2022/02/24 06:30:15;;;;;;;0.68;0.55;;;17.90;62.00;;;;;;5090815;28;20024;-71
2022/02/24 06:32:41;;;;;;;1.48;0.40;;;17.90;61.90;;;;;;5067418;28;20049;-71
2022/02/24 06:35:08;;;;;;;1.52;0.55;;;17.90;62.00;;;;;;5088487;28;20016;-71
2022/02/24 06:37:34;;;;;;;0.93;0.50;;;17.90;62.00;;;;;;5070339;28;20009;-72
2022/02/24 06:39:59;;;;;;;1.48;0.40;;;17.90;62.00;;;;;;5086756;28;20035;-71
2022/02/24 06:42:25;;;;;;;0.70;0.43;;;17.90;62.00;;;;;;5070256;28;20019;-71
2022/02/24 06:44:50;;;;;;;0.80;0.38;;;17.90;62.00;;;;;;5087225;28;20103;-71
2022/02/24 06:47:16;;;;;;;0.22;0.22;;;17.90;62.00;;;;;;5089930;28;20111;-71
2022/02/24 06:49:43;;;;;;;0.65;0.40;;;17.90;62.10;;;;;;5080511;28;20027;-71
2022/02/24 06:52:08;;;;;;;1.05;0.40;;;17.90;62.00;;;;;;5084824;28;20020;-71
2022/02/24 06:54:34;;;;;;;0.63;0.28;;;17.90;62.10;;;;;;5064730;28;20439;-71
2022/02/24 06:57:01;;;;;;;1.33;0.47;;;17.80;62.00;;;;;;5059491;28;20040;-71
2022/02/24 06:59:27;;;;;;;1.60;0.70;;;17.90;62.10;;;;;;5088247;28;20025;-71
2022/02/24 07:01:53;;;;;;;1.95;0.40;;;17.90;62.10;;;;;;5059208;28;20013;-71
2022/02/24 07:04:18;;;;;;;0.40;0.30;;;17.90;62.10;;;;;;5082907;28;20025;-71
2022/02/24 07:06:47;;;;;;;0.40;0.40;;;17.90;62.10;;;;;;5058218;28;20021;-71
2022/02/24 07:09:13;;;;;;;0.60;0.38;;;17.80;62.10;;;;;;5087763;28;20024;-71
2022/02/24 07:11:38;;;;;;;1.08;0.52;;;17.80;62.10;;;;;;5074733;28;20035;-71
2022/02/24 07:14:04;;;;;;;1.00;0.50;;;17.90;62.20;;;;;;5085266;28;20024;-71
2022/02/24 07:16:32;;;;;;;0.50;0.40;;;17.80;62.20;;;;;;5081472;28;20040;-71
2022/02/24 07:18:57;;;;;;;0.40;0.40;;;17.90;62.20;;;;;;5077674;28;20060;-71
2022/02/24 07:21:23;;;;;;;1.63;0.30;;;17.80;62.20;;;;;;5087967;28;20490;-71
2022/02/24 07:23:49;;;;;;;1.63;0.30;;;17.90;62.10;;;;;;5057878;28;20165;-71
2022/02/24 07:26:14;;;;;;;0.60;0.40;;;17.90;62.20;;;;;;5065986;28;20071;-71
2022/02/24 07:28:43;;;;;;;0.55;0.30;;;17.90;62.10;;;;;;5071474;28;20025;-70
2022/02/24 07:31:09;;;;;;;0.75;0.30;;;17.80;62.10;;;;;;5071738;28;20554;-71
2022/02/24 07:33:34;;;;;;;0.30;0.30;;;17.90;62.00;;;;;;5067284;28;20131;-71
2022/02/24 07:36:00;;;;;;;0.40;0.30;;;17.90;62.10;;;;;;5057270;28;20056;-71
2022/02/24 07:38:26;;;;;;;0.70;0.30;;;17.90;62.00;;;;;;5074939;28;20029;-71
2022/02/24 07:40:52;;;;;;;0.47;0.38;;;17.90;62.00;;;;;;5057416;28;20025;-71
2022/02/24 07:43:17;;;;;;;0.70;0.50;;;17.90;62.00;;;;;;5054067;28;20103;-73
2022/02/24 07:45:43;;;;;;;2.50;0.85;;;17.90;62.00;;;;;;5054992;28;20013;-73
2022/02/24 07:48:08;;;;;;;5.40;1.33;;;17.90;62.00;;;;;;5058653;28;20094;-73
2022/02/24 07:50:34;;;;;;;4.10;0.98;;;17.90;62.00;;;;;;5070987;28;20020;-73
2022/02/24 07:53:01;;;;;;;4.68;1.10;;;17.90;62.00;;;;;;5053689;28;20033;-73
2022/02/24 07:55:28;;;;;;;7.05;1.45;;;18.00;62.00;;;;;;5060513;28;20013;-73
2022/02/24 07:57:53;;;;;;;6.88;1.55;;;18.00;62.00;;;;;;5074753;28;20029;-73
2022/02/24 08:00:19;;;;;;;2.95;1.20;;;18.00;62.00;;;;;;5074807;28;20023;-73
2022/02/24 08:02:45;;;;;;;4.55;1.80;;;18.00;62.00;;;;;;5073084;28;20032;-73
2022/02/24 08:05:11;;;;;;;3.00;1.08;;;18.00;62.00;;;;;;5058869;28;20479;-73
2022/02/24 08:07:36;;;;;;;6.57;1.67;;;18.00;61.90;;;;;;5054575;28;20061;-73
2022/02/24 08:10:06;;;;;;;6.15;1.52;;;18.00;61.90;;;;;;5053499;28;20029;-73
2022/02/24 08:12:44;;;;;;;6.18;1.25;;;18.00;61.90;;;;;;5054392;28;20037;-73
2022/02/24 08:15:14;;;;;;;5.53;1.38;;;18.00;61.90;;;;;;5054431;28;20029;-73
2022/02/24 08:17:40;;;;;;;3.28;1.30;;;18.00;61.80;;;;;;5053936;28;20123;-73
2022/02/24 08:20:07;;;;;;;6.50;1.40;;;18.00;61.80;;;;;;5053224;28;20025;-73
2022/02/24 08:22:39;;;;;;;4.28;1.73;;;18.00;61.80;;;;;;5072478;28;20020;-73
2022/02/24 08:25:05;;;;;;;7.53;1.50;;;18.00;61.80;;;;;;5073000;28;20058;-73
2022/02/24 08:27:31;;;;;;;2.47;1.00;;;18.00;61.80;;;;;;5074260;28;20100;-73
2022/02/24 08:30:00;;;;;;;4.97;1.10;;;18.00;61.80;;;;;;5073247;28;20104;-73
2022/02/24 08:32:25;;;;;;;4.05;1.50;;;18.00;61.80;;;;;;5064244;28;20047;-73
2022/02/24 08:34:51;;;;;;;4.95;1.45;;;18.00;61.70;;;;;;5054025;28;20029;-73
2022/02/24 08:37:17;;;;;;;4.75;0.93;;;18.00;61.70;;;;;;5054074;28;20053;-73
2022/02/24 08:39:42;;;;;;;2.63;1.10;;;18.00;61.70;;;;;;5053960;28;20426;-73
2022/02/24 08:42:08;;;;;;;5.10;1.17;;;18.00;61.70;;;;;;5054001;28;20017;-73
2022/02/24 08:44:34;;;;;;;4.68;0.98;;;18.00;61.70;;;;;;5053805;28;20021;-73
2022/02/24 08:46:59;;;;;;;5.60;1.75;;;18.00;61.70;;;;;;5052550;28;20029;-73
2022/02/24 08:49:25;;;;;;;4.35;1.23;;;18.00;61.60;;;;;;5053895;28;20036;-73
2022/02/24 08:51:51;;;;;;;2.53;1.15;;;18.00;61.60;;;;;;5053926;28;20040;-73
2022/02/24 08:54:16;;;;;;;5.47;0.90;;;18.00;61.60;;;;;;5052492;28;20029;-73
2022/02/24 08:56:42;;;;;;;5.60;1.00;;;18.00;61.60;;;;;;5071809;28;20466;-73
2022/02/24 08:59:08;;;;;;;2.97;1.08;;;18.00;61.60;;;;;;5073603;28;20028;-73
2022/02/24 09:01:34;;;;;;;4.80;1.20;;;18.00;61.60;;;;;;5073135;28;20031;-73
2022/02/24 09:04:00;;;;;;;3.95;0.95;;;18.00;61.60;;;;;;5073746;28;20024;-73
2022/02/24 09:06:25;;;;;;;4.47;1.17;;;18.00;61.60;;;;;;5073287;28;20060;-73
2022/02/24 09:08:51;;;;;;;4.30;0.93;;;18.00;61.60;;;;;;5073255;28;20119;-73
2022/02/24 09:11:17;;;;;;;2.20;1.00;;;18.00;61.50;;;;;;5072403;28;20031;-73
2022/02/24 09:13:44;;;;;;;2.10;0.93;;;18.00;61.50;;;;;;5073345;28;20562;-73
2022/02/24 09:16:09;;;;;;;2.83;0.80;;;18.00;61.50;;;;;;5072802;28;20028;-73
2022/02/24 09:18:35;;;;;;;3.67;1.15;;;18.00;61.50;;;;;;5072174;28;20095;-73
2022/02/24 09:21:01;;;;;;;2.85;1.00;;;18.00;61.50;;;;;;5073199;28;20027;-73
2022/02/24 09:23:27;;;;;;;3.33;0.90;;;18.00;61.50;;;;;;5071972;28;20391;-73
2022/02/24 09:25:52;;;;;;;3.42;1.15;;;18.00;61.50;;;;;;5071761;28;20047;-73
2022/02/24 09:28:18;;;;;;;5.20;1.40;;;18.10;61.50;;;;;;5073140;28;20044;-73
2022/02/24 09:30:44;;;;;;;2.83;1.00;;;18.00;61.40;;;;;;5072614;28;20020;-73
2022/02/24 09:33:09;;;;;;;4.15;1.35;;;18.00;61.40;;;;;;5088327;28;20048;-73
2022/02/24 09:35:35;;;;;;;2.22;1.17;;;18.10;61.40;;;;;;5075184;28;20104;-73
2022/02/24 09:38:01;;;;;;;2.42;0.80;;;18.10;61.50;;;;;;5058503;28;20107;-73
2022/02/24 09:40:28;;;;;;;2.78;0.80;;;18.10;61.40;;;;;;5093107;28;20028;-73
2022/02/24 09:42:54;;;;;;;4.47;1.27;;;18.00;61.30;;;;;;5058601;28;20497;-73
2022/02/24 09:45:20;;;;;;;3.13;1.10;;;18.10;61.40;;;;;;5092821;28;20024;-73
2022/02/24 09:47:45;;;;;;;2.97;1.17;;;18.00;61.30;;;;;;5092902;28;20027;-73
2022/02/24 09:50:11;;;;;;;2.42;0.90;;;18.10;61.40;;;;;;5058293;28;20115;-73
2022/02/24 09:52:37;;;;;;;2.67;0.93;;;18.10;61.40;;;;;;5074943;28;20024;-73
2022/02/24 09:55:03;;;;;;;2.50;1.02;;;18.10;61.40;;;;;;5074855;28;20028;-73
2022/02/24 09:57:28;;;;;;;3.08;1.10;;;18.00;61.30;;;;;;5057773;28;20024;-73
2022/02/24 09:59:54;;;;;;;2.58;1.00;;;18.10;61.40;;;;;;5074463;28;20499;-73
2022/02/24 10:02:20;;;;;;;1.92;1.10;;;18.10;61.40;;;;;;5074801;28;20022;-73
2022/02/24 10:05:14;;;;;;;1.02;0.60;;;18.10;61.40;;;;;;5057966;28;20402;-73
2022/02/24 10:07:41;;;;;;;2.10;1.00;;;18.10;61.10;;;;;;5076121;28;20035;-73
2022/02/24 10:10:30;;;;;;;2.38;1.02;;;18.10;61.40;;;;;;5092769;28;20024;-73
2022/02/24 10:13:09;;;;;;;2.17;0.60;;;18.10;61.20;;;;;;5092238;28;20061;-73
2022/02/24 10:15:38;;;;;;;2.22;0.90;;;18.00;61.30;;;;;;5074978;28;20017;-73
2022/02/24 10:18:12;;;;;;;2.78;1.20;;;18.10;61.40;;;;;;5092454;28;20052;-73
2022/02/24 10:21:00;;;;;;;1.90;0.93;;;18.10;61.20;;;;;;5074934;28;20034;-73
2022/02/24 10:23:36;;;;;;;2.80;0.75;;;18.10;61.10;;;;;;5092574;28;20024;-73
2022/02/24 10:26:11;;;;;;;2.85;0.70;;;18.10;61.30;;;;;;5074522;28;20026;-73
2022/02/24 10:28:47;;;;;;;1.42;0.77;;;18.10;61.20;;;;;;5074328;28;20044;-73
2022/02/24 10:31:27;;;;;;;3.33;0.90;;;18.00;61.20;;;;;;5092393;28;20020;-73
2022/02/24 10:34:17;;;;;;;1.80;0.90;;;18.10;61.10;;;;;;5072174;28;20043;-73
2022/02/24 10:36:43;;;;;;;3.30;1.10;;;18.10;61.10;;;;;;5055095;28;20029;-73
2022/02/24 10:39:16;;;;;;;2.08;0.95;;;18.00;61.20;;;;;;5054273;28;20021;-73
2022/02/24 10:41:43;;;;;;;2.55;0.90;;;18.00;61.10;;;;;;5071876;28;20102;-73
2022/02/24 10:44:23;;;;;;;4.60;1.40;;;18.00;61.10;;;;;;5072100;28;20016;-73
2022/02/24 10:46:51;;;;;;;3.72;1.05;;;18.00;61.00;;;;;;5072054;28;20024;-73
2022/02/24 10:49:29;;;;;;;3.15;0.90;;;18.00;61.00;;;;;;5054476;28;20032;-73
2022/02/24 10:52:14;;;;;;;1.55;1.00;;;18.10;61.10;;;;;;5054044;28;20418;-73
2022/02/24 10:54:41;;;;;;;2.47;1.00;;;18.10;61.10;;;;;;5056614;28;20032;-73
2022/02/24 10:57:26;;;;;;;6.25;1.20;;;18.00;61.00;;;;;;5091815;28;20070;-73
2022/02/24 10:59:52;;;;;;;3.55;1.10;;;18.10;61.10;;;;;;5092057;28;20389;-73
2022/02/24 11:02:18;;;;;;;2.50;0.95;;;18.00;61.00;;;;;;5074033;28;20031;-73
2022/02/24 11:04:44;;;;;;;2.58;1.00;;;18.00;61.00;;;;;;5057535;28;20027;-73
2022/02/24 11:07:10;;;;;;;2.38;1.00;;;18.00;61.00;;;;;;5074167;28;20038;-73
2022/02/24 11:09:40;;;;;;;2.80;1.30;;;18.00;61.00;;;;;;5094043;28;20107;-73
2022/02/24 11:12:07;;;;;;;1.98;0.90;;;18.00;61.00;;;;;;5077742;28;20027;-73
2022/02/24 11:14:36;;;;;;;2.10;1.00;;;18.00;61.00;;;;;;5077764;28;20472;-73
2022/02/24 11:17:06;;;;;;;3.08;1.17;;;18.00;61.00;;;;;;5077617;28;20036;-73
2022/02/24 11:19:32;;;;;;;2.17;1.00;;;18.00;60.90;;;;;;5062415;28;20012;-73
2022/02/24 11:22:00;;;;;;;3.38;1.00;;;18.00;60.90;;;;;;5061504;28;20024;-73
2022/02/24 11:24:25;;;;;;;3.65;1.30;;;18.00;60.80;;;;;;5095795;28;20066;-73
2022/02/24 11:26:54;;;;;;;3.95;1.30;;;18.00;60.80;;;;;;5077227;28;20032;-73
2022/02/24 11:29:44;;;;;;;3.50;1.30;;;18.00;60.80;;;;;;5096003;28;20075;-73
2022/02/24 11:32:10;;;;;;;3.75;1.40;;;18.00;60.70;;;;;;5089394;28;20049;-73
2022/02/24 11:34:57;;;;;;;2.58;1.30;;;18.00;60.80;;;;;;5057673;28;20040;-73
2022/02/24 11:37:26;;;;;;;3.95;1.52;;;18.00;60.60;;;;;;5075286;28;20475;-73
2022/02/24 11:40:02;;;;;;;3.47;1.50;;;18.00;60.80;;;;;;5057394;28;20036;-73
2022/02/24 11:42:29;;;;;;;2.33;1.02;;;18.00;60.70;;;;;;5057735;28;20031;-73
2022/02/24 11:44:55;;;;;;;3.25;1.30;;;18.00;60.80;;;;;;5057250;28;20116;-73
2022/02/24 11:47:22;;;;;;;3.13;1.23;;;17.90;60.70;;;;;;5057439;28;20103;-73
2022/02/24 11:49:54;;;;;;;6.65;0.98;;;18.00;60.70;;;;;;5057082;28;20493;-73
2022/02/24 11:52:20;;;;;;;3.28;1.20;;;18.00;60.60;;;;;;5075098;28;20059;-73
2022/02/24 11:54:46;;;;;;;3.28;1.30;;;17.90;60.60;;;;;;5076859;28;20525;-73
2022/02/24 11:57:32;;;;;;;2.10;1.20;;;17.90;61.60;;;;;;5077028;28;20032;-73
2022/02/24 12:00:00;;;;;;;3.10;1.60;;;18.00;60.50;;;;;;5094968;28;20028;-73
2022/02/24 12:02:42;;;;;;;1.95;1.10;;;18.00;60.70;;;;;;5076840;28;20111;-73
2022/02/24 12:05:18;;;;;;;3.80;1.30;;;18.00;60.50;;;;;;5076929;28;20024;-73
2022/02/24 12:08:02;;;;;;;1.98;1.08;;;18.00;60.50;;;;;;5094906;28;20020;-73
2022/02/24 12:10:48;;;;;;;3.13;1.13;;;18.00;60.40;;;;;;5094417;28;20020;-73
2022/02/24 12:13:25;;;;;;;3.95;1.33;;;18.00;60.40;;;;;;5077437;28;20020;-73
2022/02/24 12:16:13;;;;;;;2.50;1.20;;;17.90;60.50;;;;;;5094553;28;20032;-73
2022/02/24 12:18:39;;;;;;;3.45;1.33;;;18.00;60.40;;;;;;5076812;28;20027;-73
2022/02/24 12:21:30;;;;;;;2.03;1.20;;;17.90;60.50;;;;;;5094277;28;20111;-73
2022/02/24 12:24:16;;;;;;;2.53;1.27;;;18.00;60.30;;;;;;5094189;28;20486;-73
2022/02/24 12:26:47;;;;;;;3.45;1.10;;;17.90;60.20;;;;;;5076829;28;20031;-73
2022/02/24 12:29:37;;;;;;;2.90;1.13;;;17.90;60.40;;;;;;5060271;28;20114;-73
2022/02/24 12:32:04;;;;;;;2.78;1.30;;;17.90;60.30;;;;;;5076792;28;20058;-73
2022/02/24 12:34:29;;;;;;;3.35;1.30;;;17.90;60.40;;;;;;5076281;28;20012;-73
2022/02/24 12:37:15;;;;;;;3.67;1.30;;;17.90;60.40;;;;;;5076179;28;20035;-73
2022/02/24 12:39:41;;;;;;;2.75;1.00;;;17.90;60.10;;;;;;5094248;28;20027;-73
2022/02/24 12:42:11;;;;;;;3.42;1.30;;;17.90;60.20;;;;;;5094180;28;20028;-73
2022/02/24 12:44:38;;;;;;;3.25;1.45;;;17.90;60.20;;;;;;5076247;28;20026;-73
2022/02/24 12:47:04;;;;;;;3.75;1.30;;;17.90;60.30;;;;;;5059572;28;20116;-73
2022/02/24 12:49:43;;;;;;;3.83;1.30;;;17.90;60.20;;;;;;5076253;28;20103;-73